Weather at Bremen Airport

Public forecast

Using degrees Celsius for public forecast. Weather courtesy of forecast.io.

Current aviation weather report (METAR) for Bremen Airport

Retrieved 2020/09/25 04:20 UTC (19 minutes ago):

EDDW 250420Z 22008KT 9999 SCT022 BKN036 12/11 Q0995 NOSIG

Aviation forecast (TAF) for Bremen Airport

Retrieved 2020-09-25 00:27 UTC (4 hours ago):

TAF EDDW 242300Z 2500/2524 15006KT 9999 SCT030 PROB40 TEMPO 2503/2506 27013KT SHRA SCT013 BKN025CB BECMG 2505/2507 24008KT BECMG 2516/2518 VRB03KT